Loos, Canada
Current Conditions -  °F | °C
As of 5:00 PM on Tuesday 27 Jan 2015 (Local Time) from CYXS Reporting Station
Overcast Overcast  
Wind Chill: 36°   Ceiling: 12000
Heat Index: 39°   Visibility: 9mi
Dew Point: 30°   Wind: 5mph
Humidity: 70%   Direction: 220°SW
Pressure: 29.95"   Gusts: NA
Location:  53.6°N, 120.72°W
Report Text: CYXS 280100Z AUTO 22004KT 9SM SCT055 OVC120 04/M01 A2995 RMK SLP168
Loading
Personal Weather Stations






























Interactive Weather Map New forecast layout! Learn more

10-Day Weather Forecast

Advertisements
Track Severe Weather on mobile